Time;durP1;ratioP1;P1;durP2;ratioP2;P2;SDS_P1;SDS_P2;PMS_P1;PMS_P2;Temp;Humidity;BMP_temperature;BMP_pressure;BME280_temperature;BME280_humidity;BME280_pressure;Samples;Min_cycle;Max_cycle;Signal;HPM_P1;HPM_P2
2022/04/23 00:00:12;;;;;;;12.00;7.75;;;;;;;;;;5087554;28;20036;-57
2022/04/23 00:02:39;;;;;;;11.23;7.43;;;;;;;;;;5073843;28;20032;-57
2022/04/23 00:05:05;;;;;;;11.05;7.03;;;;;;;;;;5079970;28;20079;-57
2022/04/23 00:07:31;;;;;;;7.75;6.13;;;;;;;;;;5051547;28;20286;-57
2022/04/23 00:09:57;;;;;;;10.05;7.15;;;;;;;;;;5051010;28;20079;-57
2022/04/23 00:12:23;;;;;;;11.68;6.97;;;;;;;;;;5073280;28;20395;-57
2022/04/23 00:14:49;;;;;;;10.32;7.15;;;;;;;;;;5075633;28;20028;-57
2022/04/23 00:17:15;;;;;;;9.48;6.72;;;;;;;;;;5074609;28;20028;-57
2022/04/23 00:19:44;;;;;;;10.93;7.20;;;;;;;;;;5069037;28;20127;-57
2022/04/23 00:22:10;;;;;;;11.73;7.07;;;;;;;;;;5063534;28;20041;-57
2022/04/23 00:24:36;;;;;;;11.50;7.85;;;;;;;;;;5063948;28;20032;-57
2022/04/23 00:27:03;;;;;;;11.18;7.65;;;;;;;;;;5081227;28;20039;-58
2022/04/23 00:29:30;;;;;;;14.10;8.20;;;;;;;;;;5072375;28;20029;-58
2022/04/23 00:31:56;;;;;;;12.02;7.65;;;;;;;;;;5060052;28;20502;-57
2022/04/23 00:34:22;;;;;;;15.73;8.27;;;;;;;;;;5078109;28;20027;-57
2022/04/23 00:36:48;;;;;;;12.18;8.32;;;;;;;;;;5074631;28;20378;-57
2022/04/23 00:39:14;;;;;;;12.77;8.52;;;;;;;;;;5074474;28;20114;-57
2022/04/23 00:41:45;;;;;;;10.35;7.80;;;;;;;;;;5089192;28;20028;-57
2022/04/23 00:44:11;;;;;;;13.77;8.80;;;;;;;;;;5077815;28;20033;-58
2022/04/23 00:46:37;;;;;;;14.15;8.88;;;;;;;;;;5078208;28;20081;-57
2022/04/23 00:49:05;;;;;;;15.60;9.60;;;;;;;;;;5073726;28;20115;-57
2022/04/23 00:51:32;;;;;;;13.38;8.55;;;;;;;;;;5088636;28;20113;-57
2022/04/23 00:53:59;;;;;;;12.80;8.68;;;;;;;;;;5069630;28;20529;-57
2022/04/23 00:56:25;;;;;;;12.35;8.90;;;;;;;;;;5092381;28;20032;-57
2022/04/23 00:58:52;;;;;;;16.58;9.43;;;;;;;;;;5083199;28;20433;-57
2022/04/23 01:01:23;;;;;;;12.75;8.38;;;;;;;;;;5069448;28;20524;-57
2022/04/23 01:03:49;;;;;;;12.75;8.63;;;;;;;;;;5067380;28;20048;-57
2022/04/23 01:06:16;;;;;;;13.02;8.82;;;;;;;;;;5067352;28;20032;-57
2022/04/23 01:08:42;;;;;;;12.52;8.45;;;;;;;;;;5092490;28;20409;-57
2022/04/23 01:11:08;;;;;;;12.38;8.55;;;;;;;;;;5075662;28;20054;-58
2022/04/23 01:13:34;;;;;;;14.07;8.75;;;;;;;;;;5054915;28;20471;-57
2022/04/23 01:16:01;;;;;;;13.60;8.88;;;;;;;;;;5070817;28;20050;-57
2022/04/23 01:18:28;;;;;;;13.18;8.77;;;;;;;;;;5052028;28;20091;-57
2022/04/23 01:20:57;;;;;;;13.95;8.77;;;;;;;;;;5058183;28;20017;-57
2022/04/23 01:23:23;;;;;;;13.93;9.52;;;;;;;;;;5067349;28;20540;-57
2022/04/23 01:25:53;;;;;;;12.80;9.05;;;;;;;;;;5064906;28;20552;-56
2022/04/23 01:28:20;;;;;;;18.08;9.60;;;;;;;;;;5083420;28;20039;-57
2022/04/23 01:30:48;;;;;;;14.25;9.85;;;;;;;;;;5077580;28;20464;-58
2022/04/23 01:33:14;;;;;;;14.23;9.45;;;;;;;;;;5073850;28;20021;-57
2022/04/23 01:35:40;;;;;;;16.83;10.82;;;;;;;;;;5061408;28;20654;-57
2022/04/23 01:38:06;;;;;;;14.82;9.68;;;;;;;;;;5081600;28;20020;-57
2022/04/23 01:40:32;;;;;;;13.82;9.27;;;;;;;;;;5067259;28;20035;-58
2022/04/23 01:42:58;;;;;;;15.77;9.60;;;;;;;;;;5079360;28;20068;-57
2022/04/23 01:45:25;;;;;;;16.65;10.25;;;;;;;;;;5082464;28;20028;-57
2022/04/23 01:47:51;;;;;;;18.73;10.52;;;;;;;;;;5056621;28;20036;-57
2022/04/23 01:50:17;;;;;;;15.48;10.48;;;;;;;;;;5072443;28;20040;-57
2022/04/23 01:52:42;;;;;;;15.25;10.82;;;;;;;;;;5064382;28;20028;-57
2022/04/23 01:55:09;;;;;;;17.83;11.88;;;;;;;;;;5070228;28;20047;-57
2022/04/23 01:57:35;;;;;;;19.67;10.77;;;;;;;;;;5069577;28;20137;-57
2022/04/23 02:00:01;;;;;;;17.25;11.23;;;;;;;;;;5074569;28;20032;-58
2022/04/23 02:02:27;;;;;;;17.45;11.55;;;;;;;;;;5063867;28;20438;-58
2022/04/23 02:04:53;;;;;;;17.30;11.95;;;;;;;;;;5061717;28;20041;-56
2022/04/23 02:07:19;;;;;;;15.60;11.15;;;;;;;;;;5074357;28;20395;-57
2022/04/23 02:09:45;;;;;;;18.55;11.90;;;;;;;;;;5060131;28;20021;-57
2022/04/23 02:12:11;;;;;;;17.85;10.57;;;;;;;;;;5060354;28;20025;-57
2022/04/23 02:14:37;;;;;;;19.27;11.93;;;;;;;;;;5059781;28;20039;-58
2022/04/23 02:17:03;;;;;;;17.60;11.40;;;;;;;;;;5059260;28;20036;-58
2022/04/23 02:19:29;;;;;;;17.65;12.48;;;;;;;;;;5067803;28;20033;-57
2022/04/23 02:21:55;;;;;;;17.60;11.98;;;;;;;;;;5075341;28;20035;-56
2022/04/23 02:24:22;;;;;;;17.40;11.35;;;;;;;;;;5072131;28;20037;-57
2022/04/23 02:26:47;;;;;;;18.98;12.18;;;;;;;;;;5072559;28;20079;-58
2022/04/23 02:29:13;;;;;;;18.35;11.95;;;;;;;;;;5068539;28;20440;-56
2022/04/23 02:31:39;;;;;;;19.05;12.40;;;;;;;;;;5065998;28;20048;-58
2022/04/23 02:34:05;;;;;;;18.90;12.23;;;;;;;;;;5066810;28;20086;-57
2022/04/23 02:36:31;;;;;;;19.08;12.50;;;;;;;;;;5063941;28;20060;-57
2022/04/23 02:38:59;;;;;;;16.67;11.90;;;;;;;;;;5072061;28;20074;-57
2022/04/23 02:41:25;;;;;;;18.98;12.02;;;;;;;;;;5070291;28;20032;-57
2022/04/23 02:43:51;;;;;;;19.52;13.25;;;;;;;;;;5058248;28;20028;-57
2022/04/23 02:46:17;;;;;;;20.17;13.02;;;;;;;;;;5068472;28;20036;-57
2022/04/23 02:48:44;;;;;;;20.75;12.75;;;;;;;;;;5068535;28;21926;-57
2022/04/23 02:51:15;;;;;;;17.73;12.45;;;;;;;;;;5063705;28;20040;-56
2022/04/23 02:53:41;;;;;;;19.45;13.15;;;;;;;;;;5060699;28;20017;-56
2022/04/23 02:56:13;;;;;;;19.83;13.10;;;;;;;;;;5074878;28;20043;-57
2022/04/23 02:58:39;;;;;;;19.92;12.40;;;;;;;;;;5072864;28;20074;-57
2022/04/23 03:01:05;;;;;;;20.40;13.65;;;;;;;;;;5068494;28;20036;-56
2022/04/23 03:03:31;;;;;;;22.17;13.80;;;;;;;;;;5070182;28;20021;-57
2022/04/23 03:05:57;;;;;;;22.52;13.90;;;;;;;;;;5059887;28;20384;-57
2022/04/23 03:08:24;;;;;;;20.30;12.30;;;;;;;;;;5060330;28;20029;-57
2022/04/23 03:10:50;;;;;;;19.52;13.40;;;;;;;;;;5080178;28;20017;-57
2022/04/23 03:13:16;;;;;;;21.88;13.20;;;;;;;;;;5071659;28;20028;-57
2022/04/23 03:15:44;;;;;;;22.20;13.80;;;;;;;;;;5083732;28;20024;-57
2022/04/23 03:18:11;;;;;;;24.23;14.38;;;;;;;;;;5076157;28;20119;-57
2022/04/23 03:20:38;;;;;;;21.75;12.90;;;;;;;;;;5067820;28;20024;-58
2022/04/23 03:23:04;;;;;;;20.65;13.13;;;;;;;;;;5067070;28;20059;-57
2022/04/23 03:25:32;;;;;;;24.35;13.25;;;;;;;;;;5066668;28;20033;-57
2022/04/23 03:27:59;;;;;;;20.48;13.70;;;;;;;;;;5064255;28;20392;-57
2022/04/23 03:30:25;;;;;;;20.88;12.80;;;;;;;;;;5070479;28;20044;-57
2022/04/23 03:32:51;;;;;;;19.00;12.65;;;;;;;;;;5068196;28;20024;-57
2022/04/23 03:35:17;;;;;;;20.60;13.52;;;;;;;;;;5058961;28;20396;-56
2022/04/23 03:37:43;;;;;;;19.58;13.63;;;;;;;;;;5064764;28;20032;-57
2022/04/23 03:40:10;;;;;;;19.95;12.80;;;;;;;;;;5068223;28;20161;-57
2022/04/23 03:42:36;;;;;;;20.42;13.32;;;;;;;;;;5080102;28;20047;-58
2022/04/23 03:45:02;;;;;;;23.17;14.10;;;;;;;;;;5067771;28;20029;-56
2022/04/23 03:47:31;;;;;;;19.85;12.48;;;;;;;;;;5060609;28;20040;-56
2022/04/23 03:49:57;;;;;;;19.80;13.05;;;;;;;;;;5080605;28;20028;-57
2022/04/23 03:52:23;;;;;;;21.95;14.18;;;;;;;;;;5079348;28;20028;-56
2022/04/23 03:54:49;;;;;;;24.90;14.52;;;;;;;;;;5064911;28;20072;-57
2022/04/23 03:57:15;;;;;;;22.10;13.80;;;;;;;;;;5078104;28;20044;-57
2022/04/23 03:59:41;;;;;;;21.48;13.65;;;;;;;;;;5077924;28;20379;-57
2022/04/23 04:02:07;;;;;;;21.15;13.40;;;;;;;;;;5076655;28;20086;-56
2022/04/23 04:04:34;;;;;;;24.63;15.32;;;;;;;;;;5075423;28;20423;-57
2022/04/23 04:07:00;;;;;;;21.65;14.80;;;;;;;;;;5079516;28;20042;-58
2022/04/23 04:09:27;;;;;;;21.23;14.23;;;;;;;;;;5065732;28;20174;-57
2022/04/23 04:12:02;;;;;;;21.13;13.45;;;;;;;;;;5071872;28;20040;-57
2022/04/23 04:14:30;;;;;;;19.98;13.23;;;;;;;;;;5070391;28;20066;-57
2022/04/23 04:16:56;;;;;;;21.10;14.18;;;;;;;;;;5066830;28;20389;-57
2022/04/23 04:19:22;;;;;;;21.23;13.95;;;;;;;;;;5084914;28;20654;-57
2022/04/23 04:21:48;;;;;;;25.33;14.70;;;;;;;;;;5073125;28;20033;-57
2022/04/23 04:24:14;;;;;;;23.90;15.07;;;;;;;;;;5066861;28;20112;-57
2022/04/23 04:26:41;;;;;;;21.98;13.60;;;;;;;;;;5063687;28;20116;-57
2022/04/23 04:29:07;;;;;;;27.48;15.20;;;;;;;;;;5080309;28;20017;-58
2022/04/23 04:31:49;;;;;;;22.33;15.02;;;;;;;;;;5070932;28;20053;-57
2022/04/23 04:34:16;;;;;;;22.73;15.00;;;;;;;;;;5071175;28;20028;-57
2022/04/23 04:36:42;;;;;;;23.30;14.35;;;;;;;;;;5067352;28;20040;-57
2022/04/23 04:39:08;;;;;;;22.85;14.73;;;;;;;;;;5074266;28;20032;-57
2022/04/23 04:41:35;;;;;;;21.13;14.45;;;;;;;;;;5073112;28;20024;-57
2022/04/23 04:44:01;;;;;;;24.42;15.05;;;;;;;;;;5073993;28;20028;-56
2022/04/23 04:46:27;;;;;;;24.02;14.45;;;;;;;;;;5079486;28;20512;-57
2022/04/23 04:48:53;;;;;;;23.27;14.80;;;;;;;;;;5068407;28;20104;-57
2022/04/23 04:51:19;;;;;;;27.27;15.23;;;;;;;;;;5073644;28;20407;-56
2022/04/23 04:53:45;;;;;;;27.65;15.52;;;;;;;;;;5066729;28;20099;-57
2022/04/23 04:56:11;;;;;;;24.20;14.35;;;;;;;;;;5065284;28;20027;-57
2022/04/23 04:58:37;;;;;;;25.77;14.95;;;;;;;;;;5073728;28;20028;-58
2022/04/23 05:01:04;;;;;;;24.95;15.88;;;;;;;;;;5064860;28;20090;-57
2022/04/23 05:03:30;;;;;;;26.60;15.63;;;;;;;;;;5061719;28;20033;-58
2022/04/23 05:05:56;;;;;;;24.30;14.73;;;;;;;;;;5066893;28;20115;-57
2022/04/23 05:08:22;;;;;;;21.40;13.88;;;;;;;;;;5063464;28;20029;-58
2022/04/23 05:10:48;;;;;;;23.02;15.20;;;;;;;;;;5071234;28;20024;-57
2022/04/23 05:13:14;;;;;;;22.75;15.10;;;;;;;;;;5076744;28;20103;-58
2022/04/23 05:15:40;;;;;;;23.48;13.93;;;;;;;;;;5075558;28;20016;-58
2022/04/23 05:18:06;;;;;;;22.55;14.55;;;;;;;;;;5073479;28;20043;-57
2022/04/23 05:20:32;;;;;;;26.65;15.18;;;;;;;;;;5065041;28;20047;-59
2022/04/23 05:22:58;;;;;;;22.55;14.23;;;;;;;;;;5077893;28;20086;-57
2022/04/23 05:25:24;;;;;;;21.85;14.30;;;;;;;;;;5079567;28;20085;-57
2022/04/23 05:27:50;;;;;;;25.08;14.57;;;;;;;;;;5059638;28;20427;-57
2022/04/23 05:30:16;;;;;;;21.67;13.63;;;;;;;;;;5048443;28;20029;-57
2022/04/23 05:32:42;;;;;;;22.13;13.73;;;;;;;;;;5076253;28;20093;-58
2022/04/23 05:35:08;;;;;;;21.48;14.23;;;;;;;;;;5063905;28;20304;-58
2022/04/23 05:37:34;;;;;;;22.77;13.80;;;;;;;;;;5062696;28;20036;-58
2022/04/23 05:40:00;;;;;;;23.05;14.52;;;;;;;;;;5081959;28;20571;-57
2022/04/23 05:42:26;;;;;;;23.50;14.38;;;;;;;;;;5066906;28;20678;-57
2022/04/23 05:44:52;;;;;;;21.60;13.45;;;;;;;;;;5051964;28;20031;-58
2022/04/23 05:47:18;;;;;;;20.02;12.57;;;;;;;;;;5071471;28;20028;-57
2022/04/23 05:49:44;;;;;;;19.60;12.88;;;;;;;;;;5054710;28;20111;-57
2022/04/23 05:52:10;;;;;;;18.33;13.05;;;;;;;;;;5060747;28;20044;-58
2022/04/23 05:54:36;;;;;;;19.48;12.70;;;;;;;;;;5073479;28;20028;-58
2022/04/23 05:57:02;;;;;;;18.98;12.52;;;;;;;;;;5085715;28;20036;-57
2022/04/23 05:59:31;;;;;;;20.05;12.52;;;;;;;;;;5066155;28;20111;-58
2022/04/23 06:01:57;;;;;;;20.48;12.75;;;;;;;;;;5066423;28;20024;-58
2022/04/23 06:04:25;;;;;;;18.10;12.25;;;;;;;;;;5074604;28;20028;-57
2022/04/23 06:06:51;;;;;;;16.08;11.05;;;;;;;;;;5068117;28;20036;-57
2022/04/23 06:09:17;;;;;;;16.80;11.00;;;;;;;;;;5044422;28;20043;-56
2022/04/23 06:11:43;;;;;;;17.42;10.40;;;;;;;;;;5054423;28;20384;-58
2022/04/23 06:14:09;;;;;;;16.17;9.85;;;;;;;;;;5072202;28;20412;-58
2022/04/23 06:16:37;;;;;;;14.98;9.32;;;;;;;;;;5078797;28;20041;-58
2022/04/23 06:19:03;;;;;;;14.43;9.55;;;;;;;;;;5084534;28;20054;-58
2022/04/23 06:21:29;;;;;;;13.52;9.85;;;;;;;;;;5067889;28;20033;-58
2022/04/23 06:23:55;;;;;;;15.20;9.68;;;;;;;;;;5064306;28;20033;-58
2022/04/23 06:26:21;;;;;;;15.13;10.00;;;;;;;;;;5067098;28;20036;-58
2022/04/23 06:28:47;;;;;;;14.32;9.07;;;;;;;;;;5066639;28;20100;-57
2022/04/23 06:31:13;;;;;;;13.90;8.98;;;;;;;;;;5059738;28;20431;-58
2022/04/23 06:33:41;;;;;;;13.40;8.63;;;;;;;;;;5068552;28;20024;-58
2022/04/23 06:36:10;;;;;;;14.15;8.45;;;;;;;;;;5076479;28;20021;-57
2022/04/23 06:38:36;;;;;;;16.27;8.60;;;;;;;;;;5071833;28;20031;-56
2022/04/23 06:41:02;;;;;;;14.98;7.60;;;;;;;;;;5061908;28;21626;-57
2022/04/23 06:43:28;;;;;;;12.48;7.82;;;;;;;;;;5056506;28;20025;-57
2022/04/23 06:45:53;;;;;;;12.32;7.38;;;;;;;;;;5060168;28;20025;-58
2022/04/23 06:48:20;;;;;;;10.65;6.80;;;;;;;;;;5072878;28;20414;-58
2022/04/23 06:50:45;;;;;;;12.95;7.85;;;;;;;;;;5076161;28;20033;-58
2022/04/23 06:53:12;;;;;;;9.82;6.97;;;;;;;;;;5079626;28;20065;-59
2022/04/23 06:55:38;;;;;;;12.82;7.13;;;;;;;;;;5057121;28;20557;-58
2022/04/23 06:58:04;;;;;;;11.38;6.95;;;;;;;;;;5057154;28;20131;-58
2022/04/23 07:00:30;;;;;;;9.55;6.53;;;;;;;;;;5058820;28;20163;-58
2022/04/23 07:02:56;;;;;;;10.88;5.60;;;;;;;;;;5052361;28;20040;-58
2022/04/23 07:05:22;;;;;;;10.35;6.18;;;;;;;;;;5052235;28;20044;-57
2022/04/23 07:07:57;;;;;;;9.18;5.78;;;;;;;;;;5073285;28;20032;-58
2022/04/23 07:10:24;;;;;;;7.63;4.90;;;;;;;;;;5064417;28;20452;-58
2022/04/23 07:12:52;;;;;;;7.28;5.03;;;;;;;;;;5063257;28;20029;-58
2022/04/23 07:15:18;;;;;;;6.53;4.55;;;;;;;;;;5054717;28;20439;-58
2022/04/23 07:17:44;;;;;;;8.30;4.53;;;;;;;;;;5062619;28;20034;-58
2022/04/23 07:20:11;;;;;;;7.18;4.18;;;;;;;;;;5072610;28;20384;-58
2022/04/23 07:22:37;;;;;;;7.45;4.03;;;;;;;;;;5051140;28;20033;-58
2022/04/23 07:25:03;;;;;;;7.40;4.10;;;;;;;;;;5058468;28;20051;-58
2022/04/23 07:27:29;;;;;;;5.10;3.60;;;;;;;;;;5059234;28;20033;-58
2022/04/23 07:29:55;;;;;;;5.43;3.47;;;;;;;;;;5055742;28;20449;-58
2022/04/23 07:32:21;;;;;;;3.60;2.83;;;;;;;;;;5056178;28;21224;-58
2022/04/23 07:37:33;;;;;;;5.95;3.00;;;;;;;;;;5052744;28;20607;-58
2022/04/23 07:40:00;;;;;;;5.30;3.60;;;;;;;;;;5049323;28;20115;-59
2022/04/23 07:42:27;;;;;;;5.03;3.40;;;;;;;;;;5056851;28;20099;-58
2022/04/23 07:44:53;;;;;;;5.85;3.50;;;;;;;;;;5059558;28;20024;-58
2022/04/23 07:47:19;;;;;;;7.22;3.67;;;;;;;;;;5054459;28;20075;-58
2022/04/23 07:49:46;;;;;;;5.53;3.58;;;;;;;;;;5049552;28;20033;-58
2022/04/23 07:52:12;;;;;;;4.88;3.25;;;;;;;;;;5051307;28;20437;-58
2022/04/23 07:54:38;;;;;;;5.35;2.95;;;;;;;;;;5062059;28;20020;-58
2022/04/23 07:57:06;;;;;;;5.57;3.58;;;;;;;;;;5061530;28;20032;-57
2022/04/23 07:59:32;;;;;;;6.22;3.95;;;;;;;;;;5054558;28;20079;-57
2022/04/23 08:01:59;;;;;;;5.88;4.07;;;;;;;;;;5059540;28;20020;-57
2022/04/23 08:04:25;;;;;;;6.50;3.97;;;;;;;;;;5071770;28;20043;-56
2022/04/23 08:06:50;;;;;;;7.50;4.57;;;;;;;;;;5070808;28;20043;-58
2022/04/23 08:09:16;;;;;;;7.50;4.13;;;;;;;;;;5064262;28;20036;-57
2022/04/23 08:11:42;;;;;;;7.57;4.95;;;;;;;;;;5074162;28;20032;-57
2022/04/23 08:14:08;;;;;;;6.50;4.53;;;;;;;;;;5057923;28;20499;-57
2022/04/23 08:16:34;;;;;;;6.47;4.43;;;;;;;;;;5057590;28;20560;-57
2022/04/23 08:19:00;;;;;;;6.70;4.65;;;;;;;;;;5086246;28;20036;-60
2022/04/23 08:21:26;;;;;;;5.78;4.03;;;;;;;;;;5054204;28;20116;-57
2022/04/23 08:23:52;;;;;;;9.07;4.90;;;;;;;;;;5061718;28;20112;-57
2022/04/23 08:26:18;;;;;;;6.60;4.72;;;;;;;;;;5059361;28;20510;-56
2022/04/23 08:31:29;;;;;;;7.68;4.72;;;;;;;;;;5068394;28;20144;-57
2022/04/23 08:33:58;;;;;;;6.32;4.28;;;;;;;;;;5075350;28;20032;-57
2022/04/23 08:36:26;;;;;;;7.07;4.55;;;;;;;;;;5066675;28;20434;-56
2022/04/23 08:38:53;;;;;;;8.98;5.00;;;;;;;;;;5075947;28;20028;-56
2022/04/23 08:41:19;;;;;;;6.88;5.00;;;;;;;;;;5060680;28;20025;-56
2022/04/23 08:43:47;;;;;;;6.82;4.28;;;;;;;;;;5066297;28;20491;-58
2022/04/23 08:46:15;;;;;;;6.88;5.28;;;;;;;;;;5058605;28;20032;-57
2022/04/23 08:48:43;;;;;;;6.45;4.65;;;;;;;;;;5079764;28;20024;-57
2022/04/23 08:51:12;;;;;;;8.90;4.97;;;;;;;;;;5068461;28;20144;-57
2022/04/23 08:53:41;;;;;;;7.30;4.60;;;;;;;;;;5061534;28;20025;-58
2022/04/23 08:56:07;;;;;;;9.15;4.72;;;;;;;;;;5069109;28;20080;-57
2022/04/23 08:58:33;;;;;;;7.72;4.70;;;;;;;;;;5065690;28;20068;-57
2022/04/23 09:00:59;;;;;;;7.18;4.65;;;;;;;;;;5075861;28;20052;-56
2022/04/23 09:03:25;;;;;;;5.55;4.18;;;;;;;;;;5067131;28;20519;-57
2022/04/23 09:05:54;;;;;;;4.82;3.60;;;;;;;;;;5074699;28;20101;-57
2022/04/23 09:08:20;;;;;;;7.63;4.45;;;;;;;;;;5066900;28;20435;-57
2022/04/23 09:10:47;;;;;;;6.18;3.88;;;;;;;;;;5076371;28;20036;-56
2022/04/23 09:13:26;;;;;;;7.28;4.18;;;;;;;;;;5066512;28;20094;-57
2022/04/23 09:24:51;;;;;;;5.57;4.10;;;;;;;;;;5051796;28;20048;-57
2022/04/23 09:27:17;;;;;;;4.60;3.60;;;;;;;;;;5080225;28;20032;-57
2022/04/23 09:29:59;;;;;;;5.95;3.60;;;;;;;;;;5079836;28;20032;-56
2022/04/23 09:32:27;;;;;;;4.97;3.60;;;;;;;;;;5044753;28;20028;-57
2022/04/23 09:35:13;;;;;;;4.70;3.50;;;;;;;;;;5062453;28;20104;-56
2022/04/23 09:40:26;;;;;;;5.13;3.33;;;;;;;;;;5062866;28;20067;-57
2022/04/23 09:42:56;;;;;;;4.53;3.13;;;;;;;;;;5060847;28;20125;-57
2022/04/23 09:45:26;;;;;;;6.07;3.88;;;;;;;;;;5036622;28;20056;-57
2022/04/23 09:47:52;;;;;;;4.07;2.70;;;;;;;;;;5061486;28;20075;-57
2022/04/23 09:50:18;;;;;;;4.00;2.88;;;;;;;;;;5057420;28;20036;-58
2022/04/23 09:52:45;;;;;;;4.05;2.80;;;;;;;;;;5067311;28;20021;-58
2022/04/23 09:55:12;;;;;;;4.55;3.10;;;;;;;;;;5066069;28;20110;-58
2022/04/23 09:57:38;;;;;;;3.08;2.38;;;;;;;;;;5067516;28;20737;-57
2022/04/23 10:00:07;;;;;;;3.13;2.08;;;;;;;;;;5072540;28;20058;-56
2022/04/23 10:02:34;;;;;;;3.63;2.25;;;;;;;;;;5069850;28;20033;-58
2022/04/23 10:05:02;;;;;;;4.28;2.20;;;;;;;;;;5066104;28;20031;-58
2022/04/23 10:07:30;;;;;;;4.07;2.60;;;;;;;;;;5064723;28;20024;-58
2022/04/23 10:09:57;;;;;;;2.55;2.03;;;;;;;;;;5066500;28;20025;-58
2022/04/23 10:12:26;;;;;;;2.92;2.53;;;;;;;;;;5066828;28;20024;-58
2022/04/23 10:15:00;;;;;;;3.40;2.40;;;;;;;;;;5053852;28;20025;-58
2022/04/23 10:17:26;;;;;;;5.15;2.88;;;;;;;;;;5082615;28;20036;-58
2022/04/23 10:19:52;;;;;;;3.60;2.40;;;;;;;;;;5077337;28;20547;-58
2022/04/23 10:22:20;;;;;;;3.75;2.28;;;;;;;;;;5065013;28;20119;-58
2022/04/23 10:24:49;;;;;;;3.28;2.47;;;;;;;;;;5064927;28;20024;-58
2022/04/23 10:27:17;;;;;;;3.75;2.30;;;;;;;;;;5074205;28;20030;-58
2022/04/23 10:29:43;;;;;;;5.53;2.70;;;;;;;;;;5060756;28;20404;-58
2022/04/23 10:32:12;;;;;;;3.85;2.70;;;;;;;;;;5070925;28;20454;-58
2022/04/23 10:34:39;;;;;;;3.70;2.67;;;;;;;;;;5064828;28;20542;-58
2022/04/23 10:37:24;;;;;;;2.90;2.08;;;;;;;;;;5063782;28;20030;-58
2022/04/23 10:39:53;;;;;;;4.82;2.65;;;;;;;;;;5068205;28;20118;-58
2022/04/23 10:42:19;;;;;;;3.88;2.45;;;;;;;;;;5084208;28;20108;-58
2022/04/23 10:44:48;;;;;;;3.28;2.47;;;;;;;;;;5067052;28;20101;-58
2022/04/23 10:47:29;;;;;;;6.70;2.65;;;;;;;;;;5087439;28;20058;-58
2022/04/23 10:50:18;;;;;;;3.28;2.67;;;;;;;;;;5045579;28;20044;-57
2022/04/23 10:52:44;;;;;;;3.30;2.60;;;;;;;;;;5062805;28;20447;-58
2022/04/23 10:55:11;;;;;;;3.47;2.28;;;;;;;;;;5065789;28;20127;-57
2022/04/23 10:57:40;;;;;;;3.90;2.20;;;;;;;;;;5059002;28;20079;-58
2022/04/23 11:00:20;;;;;;;4.97;2.67;;;;;;;;;;5046198;28;20127;-57
2022/04/23 11:02:56;;;;;;;4.25;2.10;;;;;;;;;;5063422;28;20028;-57
2022/04/23 11:14:06;;;;;;;3.33;2.45;;;;;;;;;;5075582;28;20564;-57
2022/04/23 11:16:32;;;;;;;3.00;2.30;;;;;;;;;;5077465;28;20501;-58
2022/04/23 11:19:00;;;;;;;4.20;2.45;;;;;;;;;;5076818;28;20040;-58
2022/04/23 11:21:32;;;;;;;4.10;2.63;;;;;;;;;;5074732;28;20024;-59
2022/04/23 11:23:59;;;;;;;3.00;2.22;;;;;;;;;;5065961;28;20029;-58
2022/04/23 11:26:45;;;;;;;4.45;2.30;;;;;;;;;;5064460;28;20491;-58
2022/04/23 11:29:11;;;;;;;3.08;2.20;;;;;;;;;;5076376;28;20023;-58
2022/04/23 11:31:37;;;;;;;2.65;2.05;;;;;;;;;;5066963;28;20457;-58
2022/04/23 11:34:04;;;;;;;2.92;1.83;;;;;;;;;;5071169;28;20043;-58
2022/04/23 11:36:31;;;;;;;3.25;2.10;;;;;;;;;;5079664;28;20028;-58
2022/04/23 11:38:58;;;;;;;3.05;1.77;;;;;;;;;;5063282;28;20036;-59
2022/04/23 11:41:31;;;;;;;2.97;2.08;;;;;;;;;;5066355;28;21874;-58
2022/04/23 11:43:58;;;;;;;2.55;1.80;;;;;;;;;;5065948;28;20025;-58
2022/04/23 11:46:24;;;;;;;3.38;1.90;;;;;;;;;;5077023;28;20049;-58
2022/04/23 11:48:51;;;;;;;2.45;1.75;;;;;;;;;;5063171;28;20625;-58
2022/04/23 11:51:19;;;;;;;2.40;1.73;;;;;;;;;;5067380;28;20033;-57
2022/04/23 11:53:57;;;;;;;3.53;1.80;;;;;;;;;;5061967;28;20024;-58
2022/04/23 11:56:24;;;;;;;2.63;1.85;;;;;;;;;;5064419;28;20143;-58
2022/04/23 11:58:54;;;;;;;2.45;1.70;;;;;;;;;;5057593;28;20123;-58
2022/04/23 12:01:23;;;;;;;3.15;1.52;;;;;;;;;;5060682;28;20553;-58
2022/04/23 12:03:54;;;;;;;2.03;1.83;;;;;;;;;;5068862;28;20523;-59
2022/04/23 12:06:20;;;;;;;2.30;1.52;;;;;;;;;;5066960;28;20021;-59
2022/04/23 12:08:46;;;;;;;2.00;1.50;;;;;;;;;;5070249;28;20024;-58
2022/04/23 12:11:22;;;;;;;2.13;1.48;;;;;;;;;;5071213;28;20560;-58
2022/04/23 12:13:48;;;;;;;4.00;1.60;;;;;;;;;;5081290;28;20028;-59
2022/04/23 12:16:17;;;;;;;3.00;1.65;;;;;;;;;;5072197;28;20029;-59
2022/04/23 12:18:43;;;;;;;2.13;1.52;;;;;;;;;;5068647;28;20025;-59
2022/04/23 12:21:09;;;;;;;2.03;1.20;;;;;;;;;;5070139;28;20392;-59
2022/04/23 12:23:41;;;;;;;2.90;1.80;;;;;;;;;;5088517;28;20052;-59
2022/04/23 12:26:09;;;;;;;3.17;1.90;;;;;;;;;;5081641;28;20083;-58
2022/04/23 12:42:25;;;;;;;2.42;1.80;;;;;;;;;;5062672;28;20086;-58
2022/04/23 12:44:52;;;;;;;4.13;2.35;;;;;;;;;;5074197;28;20039;-56
2022/04/23 12:47:32;;;;;;;2.67;2.20;;;;;;;;;;5064911;28;20031;-58
2022/04/23 12:50:00;;;;;;;3.15;2.20;;;;;;;;;;5061304;28;20029;-58
2022/04/23 12:52:28;;;;;;;3.42;2.08;;;;;;;;;;5070600;28;20056;-58
2022/04/23 12:55:12;;;;;;;2.55;1.88;;;;;;;;;;5072089;28;20593;-58
2022/04/23 12:57:45;;;;;;;2.80;1.48;;;;;;;;;;5060097;28;20098;-59
2022/04/23 13:00:11;;;;;;;;;;;;;;;;;;5076002;28;20031;-59
2022/04/23 13:02:38;;;;;;;3.80;1.73;;;;;;;;;;5062074;28;20371;-58
2022/04/23 13:05:05;;;;;;;2.30;1.90;;;;;;;;;;5076441;28;20541;-59
2022/04/23 13:10:16;;;;;;;3.35;1.85;;;;;;;;;;5058740;28;20035;-59
2022/04/23 13:12:42;;;;;;;2.20;1.40;;;;;;;;;;5070649;28;20020;-59
2022/04/23 13:15:08;;;;;;;2.72;2.00;;;;;;;;;;5074628;28;20532;-59
2022/04/23 13:17:35;;;;;;;2.47;1.60;;;;;;;;;;5074213;28;20127;-59
2022/04/23 13:20:04;;;;;;;2.20;1.52;;;;;;;;;;5060966;28;20040;-59
2022/04/23 13:22:30;;;;;;;1.67;1.40;;;;;;;;;;5069518;28;20086;-59
2022/04/23 13:24:56;;;;;;;4.35;1.67;;;;;;;;;;5073368;28;20039;-59
2022/04/23 13:27:23;;;;;;;2.10;1.40;;;;;;;;;;5075612;28;20028;-59
2022/04/23 13:29:52;;;;;;;3.17;1.40;;;;;;;;;;5063778;28;20111;-59
2022/04/23 13:32:18;;;;;;;2.20;1.20;;;;;;;;;;5066398;28;20066;-57
2022/04/23 13:34:44;;;;;;;2.15;1.40;;;;;;;;;;5075262;28;20040;-57
2022/04/23 13:37:10;;;;;;;2.15;1.13;;;;;;;;;;5074463;28;20036;-57
2022/04/23 13:39:36;;;;;;;2.10;1.23;;;;;;;;;;5062531;28;20369;-56
2022/04/23 13:42:02;;;;;;;2.05;1.15;;;;;;;;;;5046657;28;20024;-58
2022/04/23 13:44:28;;;;;;;1.70;1.20;;;;;;;;;;5065726;28;20031;-58
2022/04/23 13:46:55;;;;;;;1.40;1.02;;;;;;;;;;5054084;28;20070;-59
2022/04/23 13:49:21;;;;;;;1.52;0.85;;;;;;;;;;5076573;28;20081;-58
2022/04/23 13:51:47;;;;;;;1.88;1.27;;;;;;;;;;5061207;28;20047;-58
2022/04/23 13:54:13;;;;;;;1.35;1.02;;;;;;;;;;5065989;28;20773;-58
2022/04/23 13:56:39;;;;;;;1.17;1.08;;;;;;;;;;5059506;28;20032;-58
2022/04/23 13:59:05;;;;;;;2.50;1.10;;;;;;;;;;5069730;28;20032;-58
2022/04/23 14:01:31;;;;;;;1.67;1.40;;;;;;;;;;5068426;28;20035;-58
2022/04/23 14:10:04;;;;;;;1.98;1.55;;;;;;;;;;5027612;28;20033;-58
2022/04/23 14:12:30;;;;;;;2.83;1.38;;;;;;;;;;5053500;28;20032;-58
2022/04/23 14:14:56;;;;;;;3.30;1.38;;;;;;;;;;5073517;28;20061;-59
2022/04/23 14:17:22;;;;;;;4.18;1.30;;;;;;;;;;5073993;28;20498;-58
2022/04/23 14:19:49;;;;;;;2.08;1.40;;;;;;;;;;5063892;28;20051;-58
2022/04/23 14:22:14;;;;;;;2.80;1.40;;;;;;;;;;5066087;28;20118;-58
2022/04/23 14:24:40;;;;;;;2.63;1.25;;;;;;;;;;5068782;28;20419;-58
2022/04/23 14:27:06;;;;;;;2.08;1.27;;;;;;;;;;5070446;28;20094;-58
2022/04/23 14:29:32;;;;;;;3.33;1.35;;;;;;;;;;5067170;28;20028;-57
2022/04/23 14:32:00;;;;;;;1.58;1.10;;;;;;;;;;5063395;28;20078;-57
2022/04/23 14:34:26;;;;;;;2.63;1.52;;;;;;;;;;5062458;28;20029;-58
2022/04/23 14:36:52;;;;;;;3.25;1.48;;;;;;;;;;5071264;28;20029;-57
2022/04/23 14:39:18;;;;;;;1.58;1.30;;;;;;;;;;5070029;28;20031;-58
2022/04/23 14:41:44;;;;;;;3.17;1.70;;;;;;;;;;5071052;28;20029;-58
2022/04/23 14:44:10;;;;;;;3.72;2.08;;;;;;;;;;5071320;28;20028;-58
2022/04/23 14:46:36;;;;;;;1.65;1.20;;;;;;;;;;5076159;28;20123;-58
2022/04/23 14:49:02;;;;;;;2.45;1.77;;;;;;;;;;5049668;28;20028;-58
2022/04/23 14:54:13;;;;;;;2.70;1.70;;;;;;;;;;5069748;28;20040;-58
2022/04/23 14:56:39;;;;;;;4.00;1.73;;;;;;;;;;5058488;28;20064;-58
2022/04/23 14:59:07;;;;;;;2.63;1.40;;;;;;;;;;5067845;28;20032;-57
2022/04/23 15:01:33;;;;;;;2.55;1.80;;;;;;;;;;5049568;28;20032;-57
2022/04/23 15:04:00;;;;;;;2.28;1.60;;;;;;;;;;5065946;28;20032;-58
2022/04/23 15:06:26;;;;;;;2.83;1.67;;;;;;;;;;5061538;28;20025;-58
2022/04/23 15:08:53;;;;;;;3.75;1.63;;;;;;;;;;5065054;28;20031;-58
2022/04/23 15:11:19;;;;;;;2.15;1.23;;;;;;;;;;5059987;28;20035;-58
2022/04/23 15:13:45;;;;;;;3.85;1.63;;;;;;;;;;5066396;28;20115;-58
2022/04/23 15:16:11;;;;;;;3.55;1.33;;;;;;;;;;5076832;28;20111;-57
2022/04/23 15:18:37;;;;;;;2.22;1.45;;;;;;;;;;5060238;28;20534;-58
2022/04/23 15:21:03;;;;;;;5.75;2.10;;;;;;;;;;5082232;28;20031;-58
2022/04/23 15:23:34;;;;;;;3.05;1.90;;;;;;;;;;5062368;28;20036;-58